createdAt,value
2023-04-05T00:00:11.055Z,1.30
2023-04-05T00:04:14.759Z,1.20
2023-04-05T00:08:23.964Z,1.10
2023-04-05T00:12:28.316Z,0.90
2023-04-05T00:16:31.601Z,1.20
2023-04-05T00:20:37.310Z,1.00
2023-04-05T00:24:42.010Z,0.80
2023-04-05T00:28:46.217Z,1.00
2023-04-05T00:32:49.869Z,0.90
2023-04-05T00:36:52.737Z,0.70
2023-04-05T00:40:55.651Z,0.80
2023-04-05T00:44:59.901Z,0.70
2023-04-05T00:49:03.053Z,0.90
2023-04-05T00:53:06.469Z,0.90
2023-04-05T00:57:09.362Z,0.80
2023-04-05T01:01:18.222Z,0.80
2023-04-05T01:05:35.961Z,0.80
2023-04-05T01:09:46.472Z,0.70
2023-04-05T01:13:49.370Z,0.70
2023-04-05T01:17:54.166Z,0.80
2023-04-05T01:22:27.646Z,0.80
2023-04-05T01:26:58.412Z,0.80
2023-04-05T01:31:09.924Z,0.80
2023-04-05T01:35:20.762Z,0.80
2023-04-05T01:39:25.944Z,0.70
2023-04-05T01:43:28.809Z,0.60
2023-04-05T01:47:33.417Z,0.40
2023-04-05T01:51:36.809Z,0.40
2023-04-05T01:55:39.616Z,0.50
2023-04-05T01:59:42.471Z,0.50
2023-04-05T02:03:46.790Z,0.60
2023-04-05T02:07:49.632Z,0.70
2023-04-05T02:11:52.438Z,0.60
2023-04-05T02:15:55.312Z,0.70
2023-04-05T02:20:02.241Z,0.80
2023-04-05T02:24:05.342Z,0.70
2023-04-05T02:28:09.626Z,0.50
2023-04-05T02:32:13.546Z,0.40
2023-04-05T02:36:17.689Z,0.40
2023-04-05T02:40:22.812Z,0.40
2023-04-05T02:44:25.766Z,0.30
2023-04-05T02:48:30.850Z,0.40
2023-04-05T02:52:37.541Z,0.70
2023-04-05T02:56:41.007Z,0.70
2023-04-05T03:00:51.125Z,0.50
2023-04-05T03:05:02.226Z,0.60
2023-04-05T03:09:09.128Z,0.70
2023-04-05T03:13:14.901Z,0.70
2023-04-05T03:17:18.978Z,0.70
2023-04-05T03:21:30.846Z,0.70
2023-04-05T03:25:43.057Z,0.80
2023-04-05T03:29:47.231Z,0.80
2023-04-05T03:33:53.175Z,0.80
2023-04-05T03:37:56.937Z,0.80
2023-04-05T03:42:01.452Z,0.80
2023-04-05T03:46:05.142Z,0.80
2023-04-05T03:50:09.765Z,0.80
2023-04-05T03:54:12.550Z,0.80
2023-04-05T03:58:17.215Z,0.80
2023-04-05T04:02:20.908Z,0.80
2023-04-05T04:06:27.176Z,0.80
2023-04-05T04:10:30.787Z,0.80
2023-04-05T04:14:36.877Z,0.40
2023-04-05T04:19:02.579Z,0.30
2023-04-05T04:23:34.714Z,0.10
2023-04-05T04:27:57.612Z,0.00
2023-04-05T04:32:27.172Z,0.00
2023-04-05T04:36:48.200Z,0.10
2023-04-05T04:41:07.012Z,0.00
2023-04-05T04:45:21.872Z,-0.10
2023-04-05T04:49:36.130Z,-0.30
2023-04-05T04:53:38.977Z,-0.40
2023-04-05T04:57:42.467Z,-0.40
2023-04-05T05:01:46.593Z,-0.20
2023-04-05T05:05:53.707Z,0.00
2023-04-05T05:10:06.263Z,-0.20
2023-04-05T05:14:09.092Z,-0.40
2023-04-05T05:18:12.424Z,-0.30
2023-04-05T05:22:16.593Z,-0.20
2023-04-05T05:26:19.359Z,-0.10
2023-04-05T05:30:22.137Z,0.00
2023-04-05T05:34:25.647Z,0.20
2023-04-05T05:38:33.671Z,0.30
2023-04-05T05:42:36.719Z,0.50
2023-04-05T05:46:39.570Z,0.60
2023-04-05T05:50:42.804Z,0.80
2023-04-05T05:54:47.323Z,0.90
2023-04-05T05:58:50.157Z,1.10
2023-04-05T06:02:53.709Z,2.30
2023-04-05T06:06:56.608Z,4.80
2023-04-05T06:11:00.861Z,6.20
2023-04-05T06:15:03.764Z,7.30
2023-04-05T06:19:06.586Z,8.20
2023-04-05T06:23:09.367Z,7.50
2023-04-05T06:27:14.627Z,6.50
2023-04-05T06:31:18.270Z,5.70
2023-04-05T06:35:21.286Z,6.20
2023-04-05T06:39:24.039Z,7.60
2023-04-05T06:43:28.174Z,9.40
2023-04-05T06:47:31.257Z,10.20
2023-04-05T06:51:34.069Z,10.30
2023-04-05T06:55:36.981Z,11.70
2023-04-05T06:59:41.336Z,13.10
2023-04-05T07:03:44.342Z,13.30
2023-04-05T07:07:48.785Z,13.20
2023-04-05T07:11:51.611Z,14.20
2023-04-05T07:16:01.706Z,15.80
2023-04-05T07:20:07.592Z,17.20
2023-04-05T07:24:10.410Z,18.00
2023-04-05T07:28:13.254Z,17.50
2023-04-05T07:32:17.492Z,17.10
2023-04-05T07:36:20.510Z,17.70
2023-04-05T07:40:23.443Z,16.60
2023-04-05T07:44:26.390Z,17.00
2023-04-05T07:48:30.863Z,17.40
2023-04-05T07:52:33.518Z,17.40
2023-04-05T07:56:38.401Z,17.50
2023-04-05T08:00:42.257Z,19.00
2023-04-05T08:04:47.233Z,19.10
2023-04-05T08:08:50.095Z,19.30
2023-04-05T08:12:52.939Z,19.10
2023-04-05T08:16:55.745Z,20.80
2023-04-05T08:20:59.943Z,23.50
2023-04-05T08:25:02.935Z,25.30
2023-04-05T08:29:05.892Z,27.30
2023-04-05T08:33:09.121Z,27.10
2023-04-05T08:37:13.313Z,26.80
2023-04-05T08:41:19.269Z,24.90
2023-04-05T08:45:24.069Z,23.10
2023-04-05T08:49:27.009Z,23.20
2023-04-05T08:53:31.734Z,23.30
2023-04-05T08:57:38.705Z,24.70
2023-04-05T09:01:44.064Z,26.40
2023-04-05T09:05:49.266Z,25.30
2023-04-05T09:09:55.860Z,20.00
2023-04-05T09:13:58.882Z,24.80
2023-04-05T09:18:02.833Z,26.30
2023-04-05T09:22:09.804Z,23.50
2023-04-05T09:26:21.384Z,25.70
2023-04-05T09:30:28.725Z,27.70
2023-04-05T09:34:33.394Z,24.30
2023-04-05T09:38:46.332Z,20.90
2023-04-05T09:42:50.852Z,19.40
2023-04-05T09:46:53.707Z,18.70
2023-04-05T09:51:12.801Z,19.20
2023-04-05T09:55:27.889Z,20.80
2023-04-05T09:59:34.190Z,19.20
2023-04-05T10:03:47.896Z,21.50
2023-04-05T10:07:51.510Z,19.10
2023-04-05T10:11:54.469Z,16.80
2023-04-05T10:16:02.046Z,17.80
2023-04-05T10:20:14.357Z,18.80
2023-04-05T10:24:29.703Z,18.60
2023-04-05T10:28:34.631Z,17.30
2023-04-05T10:32:54.715Z,16.10
2023-04-05T10:37:01.661Z,15.70
2023-04-05T10:41:12.762Z,15.60
2023-04-05T10:45:19.661Z,15.10
2023-04-05T10:49:34.520Z,15.00
2023-04-05T10:53:38.709Z,15.00
2023-04-05T10:57:42.205Z,15.40
2023-04-05T11:01:47.482Z,15.00
2023-04-05T11:05:51.747Z,14.00
2023-04-05T11:10:00.742Z,15.10
2023-04-05T11:14:18.986Z,16.10
2023-04-05T11:18:23.357Z,16.70
2023-04-05T11:22:28.899Z,16.10
2023-04-05T11:26:54.208Z,17.90
2023-04-05T11:30:58.971Z,18.30
2023-04-05T11:35:06.843Z,18.10
2023-04-05T11:39:27.334Z,18.60
2023-04-05T11:43:30.783Z,19.00
2023-04-05T11:47:38.190Z,22.20
2023-04-05T11:51:42.557Z,21.00
2023-04-05T11:55:47.840Z,24.50
2023-04-05T11:59:51.605Z,24.30
2023-04-05T12:03:56.329Z,26.10
2023-04-05T12:07:59.305Z,23.90
2023-04-05T12:12:03.668Z,24.30
2023-04-05T12:16:08.190Z,26.30
2023-04-05T12:20:12.349Z,26.80
2023-04-05T12:24:15.405Z,28.60
2023-04-05T12:28:19.711Z,28.20
2023-04-05T12:32:23.061Z,26.60
2023-04-05T12:36:28.752Z,27.90
2023-04-05T12:40:32.917Z,29.30
2023-04-05T12:44:37.144Z,29.30
2023-04-05T12:48:39.890Z,29.50
2023-04-05T12:52:53.929Z,28.10
2023-04-05T12:56:57.002Z,29.00
2023-04-05T13:01:01.232Z,28.20
2023-04-05T13:05:04.258Z,28.40
2023-04-05T13:09:07.014Z,29.00
2023-04-05T13:13:09.788Z,28.60
2023-04-05T13:17:14.174Z,27.30
2023-04-05T13:21:17.200Z,27.60
2023-04-05T13:25:20.018Z,27.30
2023-04-05T13:29:22.860Z,25.40
2023-04-05T13:33:27.397Z,25.00
2023-04-05T13:37:30.485Z,25.20
2023-04-05T13:41:33.435Z,25.20
2023-04-05T13:45:37.679Z,24.80
2023-04-05T13:49:41.882Z,24.10
2023-04-05T13:53:44.734Z,23.80
2023-04-05T13:57:47.777Z,23.10
2023-04-05T14:01:50.778Z,22.70
2023-04-05T14:05:55.731Z,22.20
2023-04-05T14:09:58.622Z,20.30
2023-04-05T14:14:01.577Z,19.80
2023-04-05T14:18:05.667Z,19.70
2023-04-05T14:22:10.253Z,18.70
2023-04-05T14:26:13.136Z,18.30
2023-04-05T14:30:16.492Z,18.10
2023-04-05T14:34:19.820Z,17.70
2023-04-05T14:38:24.948Z,17.30
2023-04-05T14:42:37.491Z,16.90
2023-04-05T14:46:50.683Z,16.20
2023-04-05T14:50:53.644Z,16.00
2023-04-05T14:54:57.867Z,15.70
2023-04-05T14:59:00.809Z,15.30
2023-04-05T15:03:03.893Z,15.30
2023-04-05T15:07:08.030Z,14.90
2023-04-05T15:11:12.403Z,14.40
2023-04-05T15:15:15.543Z,14.60
2023-04-05T15:19:18.460Z,14.80
2023-04-05T15:23:21.537Z,14.60
2023-04-05T15:27:25.847Z,14.40
2023-04-05T15:31:28.762Z,14.40
2023-04-05T15:35:33.510Z,13.90
2023-04-05T15:39:36.393Z,13.90
2023-04-05T15:43:40.658Z,13.40
2023-04-05T15:47:43.597Z,13.50
2023-04-05T15:51:46.653Z,13.70
2023-04-05T15:55:49.506Z,13.70
2023-04-05T15:59:56.556Z,13.40
2023-04-05T16:03:59.782Z,12.80
2023-04-05T16:08:02.875Z,12.80
2023-04-05T16:12:06.034Z,12.80
2023-04-05T16:16:10.640Z,12.80
2023-04-05T16:20:13.571Z,12.90
2023-04-05T16:24:16.672Z,12.80
2023-04-05T16:28:19.579Z,12.70
2023-04-05T16:32:23.852Z,12.70
2023-04-05T16:36:27.574Z,12.50
2023-04-05T16:40:30.633Z,12.40
2023-04-05T16:44:33.531Z,12.30
2023-04-05T16:48:37.760Z,12.20
2023-04-05T16:52:40.624Z,11.90
2023-04-05T16:56:43.544Z,11.70
2023-04-05T17:00:46.443Z,11.70
2023-04-05T17:04:50.677Z,11.70
2023-04-05T17:08:53.534Z,11.60
2023-04-05T17:12:56.496Z,11.10
2023-04-05T17:16:59.354Z,11.00
2023-04-05T17:21:03.662Z,10.80
2023-04-05T17:25:07.274Z,10.80
2023-04-05T17:29:10.240Z,10.80
2023-04-05T17:33:13.212Z,10.80
2023-04-05T17:37:17.519Z,10.80
2023-04-05T17:41:20.472Z,10.70
2023-04-05T17:45:23.385Z,10.70
2023-04-05T17:49:26.321Z,10.40
2023-04-05T17:53:30.757Z,10.30
2023-04-05T17:57:33.690Z,10.10
2023-04-05T18:01:37.857Z,9.90
2023-04-05T18:05:40.973Z,10.00
2023-04-05T18:09:45.680Z,10.00
2023-04-05T18:13:48.659Z,9.90
2023-04-05T18:17:51.838Z,9.80
2023-04-05T18:21:54.776Z,9.70
2023-04-05T18:25:59.276Z,9.80
2023-04-05T18:30:02.329Z,9.60
2023-04-05T18:34:27.912Z,9.60
2023-04-05T18:38:30.794Z,9.50
2023-04-05T18:42:35.524Z,9.50
2023-04-05T18:46:38.646Z,9.30
2023-04-05T18:50:41.548Z,9.20
2023-04-05T18:54:44.353Z,9.10
2023-04-05T18:58:49.834Z,9.10
2023-04-05T19:02:52.905Z,9.00
2023-04-05T19:06:56.094Z,8.80
2023-04-05T19:11:56.449Z,8.90
2023-04-05T19:16:00.938Z,8.80
2023-04-05T19:20:04.194Z,9.00
2023-04-05T19:24:09.623Z,8.90
2023-04-05T19:28:12.549Z,8.30
2023-04-05T19:32:17.093Z,8.00
2023-04-05T19:36:20.099Z,7.90
2023-04-05T19:40:24.228Z,7.90
2023-04-05T19:44:49.517Z,7.80
2023-04-05T19:48:54.011Z,7.80
2023-04-05T19:52:56.920Z,7.90
2023-04-05T19:57:01.661Z,7.80
2023-04-05T20:01:09.707Z,7.20
2023-04-05T20:05:16.030Z,7.00
2023-04-05T20:09:20.069Z,6.70
2023-04-05T20:13:22.958Z,6.50
2023-04-05T20:17:28.309Z,6.30
2023-04-05T20:21:33.324Z,6.10
2023-04-05T20:25:39.292Z,6.00
2023-04-05T20:29:42.226Z,5.90
2023-04-05T20:33:49.803Z,5.90
2023-04-05T20:37:54.096Z,5.70
2023-04-05T20:41:57.830Z,5.80
2023-04-05T20:46:02.673Z,5.70
2023-04-05T20:50:06.636Z,5.40
2023-04-05T20:54:10.925Z,5.20
2023-04-05T20:58:13.778Z,5.20
2023-04-05T21:02:16.827Z,5.20
2023-04-05T21:06:19.759Z,5.30
2023-04-05T21:10:24.081Z,5.20
2023-04-05T21:14:27.996Z,4.90
2023-04-05T21:18:31.012Z,5.10
2023-04-05T21:22:34.131Z,5.00
2023-04-05T21:26:38.356Z,4.90
2023-04-05T21:30:41.492Z,4.80
2023-04-05T21:34:44.702Z,4.60
2023-04-05T21:38:47.596Z,4.60
2023-04-05T21:42:51.876Z,4.50
2023-04-05T21:46:54.810Z,4.50
2023-04-05T21:50:57.750Z,4.40
2023-04-05T21:55:00.661Z,4.30
2023-04-05T21:59:05.039Z,4.20
2023-04-05T22:03:08.061Z,4.10
2023-04-05T22:07:11.219Z,4.40
2023-04-05T22:11:14.379Z,4.00
2023-04-05T22:15:18.632Z,3.90
2023-04-05T22:19:21.806Z,3.80
2023-04-05T22:23:24.804Z,3.60
2023-04-05T22:27:29.346Z,3.70
2023-04-05T22:31:33.723Z,3.50
2023-04-05T22:35:36.712Z,3.40
2023-04-05T22:39:39.809Z,3.40
2023-04-05T22:43:42.694Z,3.50
2023-04-05T22:47:46.943Z,3.60
2023-04-05T22:51:49.952Z,3.40
2023-04-05T22:55:52.837Z,3.20
2023-04-05T22:59:55.883Z,3.20
2023-04-05T23:04:00.143Z,3.20
2023-04-05T23:08:03.034Z,3.30
2023-04-05T23:12:06.346Z,3.30
2023-04-05T23:16:09.391Z,3.40
2023-04-05T23:20:14.084Z,3.40
2023-04-05T23:24:17.191Z,3.30
2023-04-05T23:28:20.132Z,3.30
2023-04-05T23:32:23.104Z,3.20
2023-04-05T23:36:27.753Z,3.10
2023-04-05T23:40:30.656Z,3.00
2023-04-05T23:44:33.664Z,3.00
2023-04-05T23:48:36.544Z,3.00
2023-04-05T23:52:40.813Z,2.90
2023-04-05T23:56:43.686Z,2.80
